createdAt,value
2018-08-20T00:01:33.889Z,14.47
2018-08-20T00:04:03.294Z,9.67
2018-08-20T00:06:43.219Z,9.40
2018-08-20T00:09:11.445Z,9.67
2018-08-20T00:11:39.657Z,10.10
2018-08-20T00:14:07.972Z,11.37
2018-08-20T00:16:36.153Z,10.80
2018-08-20T00:19:04.528Z,11.07
2018-08-20T00:21:32.727Z,11.43
2018-08-20T00:24:00.924Z,9.73
2018-08-20T00:26:29.223Z,10.57
2018-08-20T00:28:57.426Z,11.57
2018-08-20T00:31:25.660Z,11.13
2018-08-20T00:33:54.227Z,10.00
2018-08-20T00:36:22.458Z,10.97
2018-08-20T00:38:50.706Z,10.83
2018-08-20T00:41:18.998Z,10.10
2018-08-20T00:43:47.271Z,11.37
2018-08-20T00:46:15.580Z,15.20
2018-08-20T00:48:43.936Z,11.67
2018-08-20T00:51:12.176Z,11.37
2018-08-20T00:53:40.453Z,12.03
2018-08-20T00:56:08.930Z,12.40
2018-08-20T00:58:37.148Z,11.30
2018-08-20T01:01:06.468Z,12.03
2018-08-20T01:03:34.991Z,11.63
2018-08-20T01:06:03.269Z,12.50
2018-08-20T01:08:31.487Z,12.03
2018-08-20T01:11:00.015Z,11.67
2018-08-20T01:13:28.324Z,11.40
2018-08-20T01:15:56.576Z,11.10
2018-08-20T01:18:24.764Z,13.77
2018-08-20T01:20:53.004Z,10.87
2018-08-20T01:23:21.301Z,12.50
2018-08-20T01:25:49.511Z,17.10
2018-08-20T01:28:17.895Z,14.30
2018-08-20T01:30:46.352Z,12.00
2018-08-20T01:33:14.623Z,12.23
2018-08-20T01:35:43.045Z,11.47
2018-08-20T01:38:11.272Z,13.00
2018-08-20T01:40:39.903Z,10.40
2018-08-20T01:43:08.185Z,13.17
2018-08-20T01:45:36.408Z,9.93
2018-08-20T01:48:05.026Z,13.57
2018-08-20T01:50:33.221Z,11.63
2018-08-20T01:53:01.453Z,15.07
2018-08-20T01:55:29.730Z,11.97
2018-08-20T01:57:57.964Z,11.43
2018-08-20T02:00:26.228Z,10.73
2018-08-20T02:02:55.416Z,12.57
2018-08-20T02:05:24.248Z,13.17
2018-08-20T02:07:52.607Z,11.43
2018-08-20T02:10:21.038Z,10.80
2018-08-20T02:12:49.393Z,12.23
2018-08-20T02:15:17.706Z,12.40
2018-08-20T02:17:46.025Z,12.37
2018-08-20T02:20:14.319Z,12.50
2018-08-20T02:22:42.657Z,10.97
2018-08-20T02:25:10.931Z,11.27
2018-08-20T02:27:39.348Z,11.13
2018-08-20T02:30:07.895Z,12.47
2018-08-20T02:32:36.453Z,10.80
2018-08-20T02:35:05.539Z,10.37
2018-08-20T02:37:39.220Z,9.50
2018-08-20T02:40:07.706Z,11.03
2018-08-20T02:42:36.319Z,12.10
2018-08-20T02:45:05.811Z,11.80
2018-08-20T02:47:34.079Z,9.20
2018-08-20T02:50:02.319Z,9.70
2018-08-20T02:52:30.565Z,9.77
2018-08-20T02:54:58.892Z,9.17
2018-08-20T02:57:27.128Z,8.73
2018-08-20T02:59:55.436Z,9.87
2018-08-20T03:02:23.626Z,8.90
2018-08-20T03:04:52.114Z,7.50
2018-08-20T03:07:20.423Z,8.90
2018-08-20T03:09:48.636Z,9.30
2018-08-20T03:12:17.066Z,9.10
2018-08-20T03:14:45.315Z,10.20
2018-08-20T03:17:13.544Z,10.57
2018-08-20T03:19:41.807Z,9.10
2018-08-20T03:22:10.229Z,9.47
2018-08-20T03:24:38.488Z,10.20
2018-08-20T03:27:06.864Z,11.00
2018-08-20T03:29:35.151Z,13.87
2018-08-20T03:32:03.349Z,11.60
2018-08-20T03:34:31.600Z,14.53
2018-08-20T03:37:00.117Z,14.53
2018-08-20T03:39:28.365Z,14.67
2018-08-20T03:41:56.623Z,12.13
2018-08-20T03:44:24.927Z,12.30
2018-08-20T03:46:53.168Z,11.97
2018-08-20T03:49:21.516Z,11.80
2018-08-20T03:51:49.754Z,13.63
2018-08-20T03:54:18.004Z,15.00
2018-08-20T03:56:46.319Z,16.07
2018-08-20T03:59:46.188Z,13.80
2018-08-20T04:02:14.372Z,13.30
2018-08-20T04:04:42.565Z,13.47
2018-08-20T04:07:10.750Z,18.17
2018-08-20T04:09:39.019Z,13.97
2018-08-20T04:12:07.336Z,15.13
2018-08-20T04:14:35.588Z,14.67
2018-08-20T04:17:03.862Z,12.73
2018-08-20T04:19:32.156Z,14.53
2018-08-20T04:22:00.357Z,12.40
2018-08-20T04:24:28.630Z,18.20
2018-08-20T04:26:56.986Z,19.50
2018-08-20T04:29:25.438Z,16.53
2018-08-20T04:31:53.728Z,17.43
2018-08-20T04:34:21.988Z,14.87
2018-08-20T04:36:50.200Z,15.60
2018-08-20T04:39:18.581Z,19.50
2018-08-20T04:41:46.847Z,14.70
2018-08-20T04:44:15.166Z,17.83
2018-08-20T04:46:43.475Z,16.80
2018-08-20T04:49:11.713Z,17.67
2018-08-20T04:51:39.903Z,12.63
2018-08-20T04:54:08.201Z,14.17
2018-08-20T04:56:36.520Z,16.63
2018-08-20T04:59:04.764Z,16.27
2018-08-20T05:01:32.953Z,15.13
2018-08-20T05:04:01.283Z,14.23
2018-08-20T05:06:29.535Z,13.03
2018-08-20T05:08:57.828Z,21.47
2018-08-20T05:11:26.064Z,12.90
2018-08-20T05:13:54.338Z,14.87
2018-08-20T05:16:22.598Z,12.20
2018-08-20T05:18:50.916Z,13.67
2018-08-20T05:21:19.514Z,12.30
2018-08-20T05:23:47.801Z,15.07
2018-08-20T05:26:16.011Z,15.83
2018-08-20T05:28:44.276Z,12.10
2018-08-20T05:31:12.724Z,13.00
2018-08-20T05:33:41.143Z,11.07
2018-08-20T05:36:09.487Z,11.90
2018-08-20T05:38:37.818Z,13.60
2018-08-20T05:41:06.094Z,16.17
2018-08-20T05:43:34.358Z,10.33
2018-08-20T05:46:02.604Z,11.70
2018-08-20T05:48:30.772Z,11.90
2018-08-20T05:50:58.996Z,13.10
2018-08-20T05:53:27.265Z,11.87
2018-08-20T05:55:55.533Z,10.87
2018-08-20T05:58:23.715Z,9.07
2018-08-20T06:00:51.980Z,9.93
2018-08-20T06:03:20.267Z,8.33
2018-08-20T06:05:48.461Z,8.47
2018-08-20T06:08:17.146Z,8.93
2018-08-20T06:10:45.356Z,13.03
2018-08-20T06:13:13.824Z,7.50
2018-08-20T06:15:42.061Z,6.40
2018-08-20T06:18:10.504Z,7.00
2018-08-20T06:20:38.681Z,6.80
2018-08-20T06:23:06.865Z,9.40
2018-08-20T06:25:35.049Z,7.27
2018-08-20T06:28:03.228Z,7.30
2018-08-20T06:30:31.553Z,10.93
2018-08-20T06:32:59.758Z,9.03
2018-08-20T06:35:28.082Z,9.97
2018-08-20T06:37:56.327Z,7.53
2018-08-20T06:40:24.604Z,8.03
2018-08-20T06:42:52.911Z,7.60
2018-08-20T06:45:21.077Z,8.57
2018-08-20T06:47:49.276Z,9.07
2018-08-20T06:50:17.639Z,7.70
2018-08-20T06:52:46.384Z,8.87
2018-08-20T06:55:15.781Z,9.47
2018-08-20T06:57:45.042Z,9.77
2018-08-20T07:00:13.433Z,9.53
2018-08-20T07:02:42.783Z,10.07
2018-08-20T07:05:11.041Z,10.10
2018-08-20T07:07:40.243Z,9.67
2018-08-20T07:10:10.711Z,9.63
2018-08-20T07:12:38.994Z,9.30
2018-08-20T07:15:08.096Z,9.60
2018-08-20T07:17:36.402Z,9.60
2018-08-20T07:20:06.159Z,7.80
2018-08-20T07:22:34.429Z,10.40
2018-08-20T07:25:02.667Z,7.50
2018-08-20T07:27:30.884Z,7.00
2018-08-20T07:29:59.107Z,7.47
2018-08-20T07:32:27.389Z,6.67
2018-08-20T07:34:55.665Z,7.47
2018-08-20T07:37:23.911Z,9.27
2018-08-20T07:39:52.216Z,4.80
2018-08-20T07:42:20.556Z,5.10
2018-08-20T07:44:48.764Z,3.80
2018-08-20T07:47:16.929Z,4.40
2018-08-20T07:49:45.255Z,6.03
2018-08-20T07:52:13.503Z,6.20
2018-08-20T07:54:41.764Z,4.10
2018-08-20T07:57:10.619Z,3.63
2018-08-20T07:59:38.839Z,5.20
2018-08-20T08:02:07.618Z,3.93
2018-08-20T08:04:35.855Z,3.40
2018-08-20T08:07:04.223Z,4.10
2018-08-20T08:09:32.737Z,4.20
2018-08-20T08:12:01.041Z,5.57
2018-08-20T08:14:29.230Z,2.60
2018-08-20T08:16:57.432Z,4.77
2018-08-20T08:19:25.722Z,3.60
2018-08-20T08:21:54.314Z,5.00
2018-08-20T08:24:22.700Z,2.90
2018-08-20T08:26:50.910Z,2.63
2018-08-20T08:29:19.169Z,3.77
2018-08-20T08:31:47.357Z,2.37
2018-08-20T08:34:15.601Z,3.07
2018-08-20T08:36:43.828Z,2.80
2018-08-20T08:39:12.533Z,2.07
2018-08-20T08:41:41.159Z,3.13
2018-08-20T08:44:09.877Z,1.93
2018-08-20T08:46:38.100Z,1.63
2018-08-20T08:49:06.353Z,1.73
2018-08-20T08:51:34.586Z,1.37
2018-08-20T08:54:02.817Z,3.57
2018-08-20T08:56:31.170Z,1.10
2018-08-20T08:58:59.385Z,2.20
2018-08-20T09:01:28.113Z,0.80
2018-08-20T09:03:56.355Z,2.97
2018-08-20T09:06:24.580Z,2.40
2018-08-20T09:08:52.926Z,1.23
2018-08-20T09:11:21.546Z,0.87
2018-08-20T09:13:49.925Z,1.43
2018-08-20T09:16:18.377Z,1.20
2018-08-20T09:18:46.614Z,4.07
2018-08-20T09:21:14.860Z,3.87
2018-08-20T09:23:43.422Z,1.43
2018-08-20T09:26:11.747Z,2.00
2018-08-20T09:28:40.041Z,0.97
2018-08-20T09:31:08.304Z,1.70
2018-08-20T09:33:36.484Z,1.17
2018-08-20T09:36:04.824Z,1.23
2018-08-20T09:38:33.213Z,1.07
2018-08-20T09:41:01.485Z,3.03
2018-08-20T09:43:38.382Z,0.90
2018-08-20T09:46:06.602Z,1.37
2018-08-20T09:48:35.027Z,1.73
2018-08-20T09:51:03.308Z,2.63
2018-08-20T09:53:31.644Z,1.00
2018-08-20T09:55:59.963Z,1.10
2018-08-20T09:58:28.316Z,2.10
2018-08-20T10:00:56.572Z,2.43
2018-08-20T10:03:24.905Z,1.30
2018-08-20T10:05:53.128Z,1.10
2018-08-20T10:08:22.084Z,1.30
2018-08-20T10:10:50.324Z,2.20
2018-08-20T10:13:18.673Z,1.70
2018-08-20T10:15:46.957Z,3.67
2018-08-20T10:18:15.445Z,1.73
2018-08-20T10:20:43.722Z,2.07
2018-08-20T10:23:12.138Z,2.63
2018-08-20T10:25:40.367Z,1.57
2018-08-20T10:28:08.882Z,1.90
2018-08-20T10:30:37.165Z,4.53
2018-08-20T10:33:05.448Z,1.10
2018-08-20T10:35:33.857Z,2.17
2018-08-20T10:38:02.196Z,1.93
2018-08-20T10:40:30.570Z,0.80
2018-08-20T10:42:58.825Z,1.00
2018-08-20T10:45:32.909Z,2.20
2018-08-20T10:48:01.142Z,1.17
2018-08-20T10:50:29.440Z,1.33
2018-08-20T10:52:57.680Z,1.07
2018-08-20T10:55:25.892Z,0.77
2018-08-20T10:57:54.215Z,0.93
2018-08-20T11:00:22.611Z,0.70
2018-08-20T11:02:50.961Z,0.90
2018-08-20T11:05:19.576Z,0.77
2018-08-20T11:07:47.795Z,1.43
2018-08-20T11:10:16.310Z,0.93
2018-08-20T11:12:44.556Z,1.47
2018-08-20T11:15:12.909Z,1.33
2018-08-20T11:17:41.149Z,0.97
2018-08-20T11:20:11.463Z,1.83
2018-08-20T11:22:39.770Z,0.97
2018-08-20T11:25:08.952Z,1.10
2018-08-20T11:27:37.598Z,2.40
2018-08-20T11:30:06.637Z,1.10
2018-08-20T11:32:34.999Z,0.93
2018-08-20T11:35:03.280Z,0.53
2018-08-20T11:37:31.744Z,1.27
2018-08-20T11:40:00.108Z,1.50
2018-08-20T11:42:28.353Z,2.53
2018-08-20T11:44:56.552Z,1.90
2018-08-20T11:47:24.849Z,2.27
2018-08-20T11:49:53.174Z,2.67
2018-08-20T11:52:21.476Z,2.10
2018-08-20T11:54:49.758Z,1.93
2018-08-20T11:57:17.964Z,1.70
2018-08-20T11:59:46.255Z,2.30
2018-08-20T12:02:14.873Z,2.60
2018-08-20T12:04:43.095Z,1.97
2018-08-20T12:07:11.472Z,1.70
2018-08-20T12:09:39.663Z,3.07
2018-08-20T12:12:07.965Z,2.30
2018-08-20T12:14:36.175Z,3.37
2018-08-20T12:17:04.582Z,3.03
2018-08-20T12:19:32.814Z,5.60
2018-08-20T12:22:01.136Z,3.20
2018-08-20T12:24:29.377Z,4.10
2018-08-20T12:26:57.570Z,1.97
2018-08-20T12:29:26.501Z,2.80
2018-08-20T12:31:54.837Z,1.77
2018-08-20T12:34:23.157Z,1.33
2018-08-20T12:36:51.384Z,1.73
2018-08-20T12:39:19.672Z,1.33
2018-08-20T12:41:47.892Z,1.10
2018-08-20T12:44:16.149Z,1.70
2018-08-20T12:46:44.332Z,1.53
2018-08-20T12:49:12.762Z,2.30
2018-08-20T12:51:41.043Z,1.60
2018-08-20T12:54:09.232Z,1.43
2018-08-20T12:56:37.597Z,1.23
2018-08-20T12:59:05.881Z,2.10
2018-08-20T13:01:34.292Z,1.67
2018-08-20T13:04:03.664Z,2.10
2018-08-20T13:06:31.948Z,4.00
2018-08-20T13:09:00.379Z,1.27
2018-08-20T13:11:28.631Z,1.90
2018-08-20T13:13:56.826Z,4.37
2018-08-20T13:16:25.424Z,2.17
2018-08-20T13:18:54.098Z,1.60
2018-08-20T13:21:22.450Z,3.17
2018-08-20T13:23:50.712Z,4.43
2018-08-20T13:26:19.166Z,3.47
2018-08-20T13:28:47.366Z,5.53
2018-08-20T13:31:15.824Z,3.03
2018-08-20T13:33:44.290Z,1.00
2018-08-20T13:36:12.501Z,2.30
2018-08-20T13:38:41.053Z,1.60
2018-08-20T13:41:09.306Z,3.13
2018-08-20T13:43:37.558Z,1.70
2018-08-20T13:46:05.957Z,1.93
2018-08-20T13:48:34.244Z,1.47
2018-08-20T13:51:02.550Z,1.90
2018-08-20T13:53:30.786Z,2.73
2018-08-20T13:55:59.102Z,1.93
2018-08-20T13:58:27.433Z,2.43
2018-08-20T14:00:55.704Z,3.23
2018-08-20T14:03:23.935Z,1.33
2018-08-20T14:05:53.303Z,1.00
2018-08-20T14:08:21.609Z,3.83
2018-08-20T14:10:49.914Z,1.30
2018-08-20T14:13:18.140Z,3.43
2018-08-20T14:15:46.466Z,1.53
2018-08-20T14:18:14.848Z,2.00
2018-08-20T14:20:53.962Z,1.30
2018-08-20T14:23:22.303Z,2.40
2018-08-20T14:25:50.594Z,6.37
2018-08-20T14:28:18.789Z,6.23
2018-08-20T14:30:47.095Z,1.33
2018-08-20T14:33:15.357Z,3.70
2018-08-20T14:35:43.585Z,1.20
2018-08-20T14:38:11.918Z,1.20
2018-08-20T14:40:40.187Z,1.47
2018-08-20T14:43:08.444Z,1.17
2018-08-20T14:45:42.271Z,2.97
2018-08-20T14:48:10.509Z,4.07
2018-08-20T14:50:38.738Z,2.33
2018-08-20T14:53:06.977Z,2.80
2018-08-20T14:55:35.259Z,2.37
2018-08-20T14:58:04.596Z,1.50
2018-08-20T15:00:32.995Z,3.73
2018-08-20T15:03:01.218Z,3.20
2018-08-20T15:05:29.516Z,2.30
2018-08-20T15:07:57.791Z,3.03
2018-08-20T15:10:26.245Z,1.53
2018-08-20T15:12:54.625Z,1.13
2018-08-20T15:15:23.144Z,1.97
2018-08-20T15:17:51.391Z,2.10
2018-08-20T15:20:19.787Z,2.63
2018-08-20T15:22:48.069Z,2.73
2018-08-20T15:25:16.316Z,1.80
2018-08-20T15:27:44.661Z,1.73
2018-08-20T15:30:12.880Z,2.03
2018-08-20T15:32:41.195Z,2.63
2018-08-20T15:35:09.355Z,2.87
2018-08-20T15:37:38.161Z,3.77
2018-08-20T15:40:06.606Z,2.80
2018-08-20T15:42:34.945Z,3.73
2018-08-20T15:45:03.303Z,4.23
2018-08-20T15:47:31.973Z,3.13
2018-08-20T15:50:00.500Z,1.93
2018-08-20T15:52:28.689Z,1.90
2018-08-20T15:54:56.981Z,1.70
2018-08-20T15:57:25.650Z,5.40
2018-08-20T15:59:54.033Z,2.93
2018-08-20T16:02:22.304Z,1.83
2018-08-20T16:04:50.669Z,2.60
2018-08-20T16:07:18.989Z,3.43
2018-08-20T16:09:47.225Z,1.50
2018-08-20T16:12:15.578Z,2.47
2018-08-20T16:14:43.869Z,4.10
2018-08-20T16:17:12.132Z,2.80
2018-08-20T16:19:40.583Z,1.50
2018-08-20T16:22:08.814Z,3.57
2018-08-20T16:24:37.072Z,8.40
2018-08-20T16:27:05.506Z,3.33
2018-08-20T16:29:33.798Z,3.13
2018-08-20T16:32:03.093Z,3.13
2018-08-20T16:34:31.336Z,4.93
2018-08-20T16:36:59.701Z,4.87
2018-08-20T16:39:27.927Z,2.63
2018-08-20T16:41:56.487Z,2.47
2018-08-20T16:44:24.783Z,3.37
2018-08-20T16:46:53.047Z,4.10
2018-08-20T16:49:21.324Z,4.47
2018-08-20T16:51:49.769Z,2.40
2018-08-20T16:54:18.165Z,4.63
2018-08-20T16:56:46.462Z,3.43
2018-08-20T16:59:14.948Z,2.73
2018-08-20T17:01:43.264Z,3.70
2018-08-20T17:04:26.958Z,2.73
2018-08-20T17:06:55.147Z,3.00
2018-08-20T17:09:23.903Z,8.20
2018-08-20T17:11:52.228Z,4.20
2018-08-20T17:14:20.436Z,1.60
2018-08-20T17:16:48.679Z,1.53
2018-08-20T17:19:16.897Z,1.77
2018-08-20T17:21:45.281Z,3.73
2018-08-20T17:24:14.969Z,1.90
2018-08-20T17:26:43.245Z,3.07
2018-08-20T17:29:12.243Z,5.90
2018-08-20T17:31:40.498Z,2.20
2018-08-20T17:34:08.979Z,5.00
2018-08-20T17:36:38.453Z,2.30
2018-08-20T17:39:08.370Z,5.30
2018-08-20T17:41:36.660Z,2.90
2018-08-20T17:44:04.949Z,5.23
2018-08-20T17:46:33.288Z,2.70
2018-08-20T17:49:01.483Z,1.83
2018-08-20T17:51:29.783Z,5.03
2018-08-20T17:53:59.039Z,2.17
2018-08-20T17:56:27.350Z,5.83
2018-08-20T17:59:01.104Z,2.23
2018-08-20T18:01:31.200Z,2.10
2018-08-20T18:03:59.416Z,3.23
2018-08-20T18:06:42.992Z,3.83
2018-08-20T18:09:11.248Z,3.27
2018-08-20T18:11:43.172Z,4.33
2018-08-20T18:14:11.405Z,2.70
2018-08-20T18:16:39.688Z,2.13
2018-08-20T18:21:52.412Z,1.80
2018-08-20T18:24:21.750Z,7.23
2018-08-20T18:26:57.299Z,2.93
2018-08-20T18:29:25.503Z,3.67
2018-08-20T18:31:55.279Z,5.53
2018-08-20T18:34:23.805Z,3.80
2018-08-20T18:36:52.106Z,7.73
2018-08-20T18:39:20.344Z,4.63
2018-08-20T18:42:06.176Z,3.00
2018-08-20T18:44:34.408Z,2.60
2018-08-20T18:47:02.724Z,5.93
2018-08-20T18:49:30.970Z,2.47
2018-08-20T18:52:06.693Z,5.20
2018-08-20T18:54:35.926Z,6.60
2018-08-20T18:57:04.856Z,8.37
2018-08-20T18:59:34.420Z,7.30
2018-08-20T19:02:02.688Z,2.57
2018-08-20T19:04:39.333Z,5.00
2018-08-20T19:07:09.532Z,4.30
2018-08-20T19:09:38.581Z,6.23
2018-08-20T19:12:06.983Z,7.80
2018-08-20T19:14:35.677Z,5.30
2018-08-20T19:17:11.582Z,3.30
2018-08-20T19:19:44.024Z,6.00
2018-08-20T19:22:16.537Z,5.03
2018-08-20T19:24:44.798Z,6.53
2018-08-20T19:27:13.153Z,8.10
2018-08-20T19:29:41.403Z,8.10
2018-08-20T19:32:10.084Z,2.33
2018-08-20T19:34:38.524Z,2.83
2018-08-20T19:37:07.585Z,3.53
2018-08-20T19:39:36.020Z,6.13
2018-08-20T19:42:04.594Z,2.30
2018-08-20T19:44:32.894Z,4.00
2018-08-20T19:47:01.157Z,4.78
2018-08-20T19:49:29.357Z,3.00
2018-08-20T19:51:57.771Z,3.62
2018-08-20T19:54:27.045Z,4.08
2018-08-20T19:56:55.300Z,2.80
2018-08-20T19:59:28.922Z,3.52
2018-08-20T20:01:57.210Z,8.40
2018-08-20T20:04:25.597Z,3.83
2018-08-20T20:06:54.153Z,5.50
2018-08-20T20:09:22.401Z,8.30
2018-08-20T20:11:51.696Z,6.25
2018-08-20T20:14:20.125Z,4.08
2018-08-20T20:16:54.487Z,7.53
2018-08-20T20:19:22.820Z,5.95
2018-08-20T20:21:51.063Z,5.33
2018-08-20T20:24:19.327Z,1.90
2018-08-20T20:26:47.606Z,6.75
2018-08-20T20:29:15.953Z,4.85
2018-08-20T20:31:44.136Z,11.48
2018-08-20T20:34:12.533Z,2.45
2018-08-20T20:36:40.968Z,7.78
2018-08-20T20:39:11.333Z,4.15
2018-08-20T20:41:39.897Z,3.70
2018-08-20T20:44:08.791Z,4.40
2018-08-20T20:46:37.120Z,4.42
2018-08-20T20:49:05.449Z,3.60
2018-08-20T20:51:33.742Z,5.30
2018-08-20T20:54:02.061Z,5.05
2018-08-20T20:56:30.665Z,6.92
2018-08-20T20:58:58.905Z,4.10
2018-08-20T21:01:27.840Z,2.77
2018-08-20T21:03:56.074Z,7.90
2018-08-20T21:06:24.336Z,3.37
2018-08-20T21:08:52.708Z,2.55
2018-08-20T21:11:22.065Z,6.83
2018-08-20T21:13:50.447Z,4.50
2018-08-20T21:16:22.744Z,4.45
2018-08-20T21:18:57.097Z,5.08
2018-08-20T21:21:25.942Z,2.87
2018-08-20T21:23:56.379Z,1.98
2018-08-20T21:26:24.648Z,5.87
2018-08-20T21:28:53.670Z,4.67
2018-08-20T21:31:26.006Z,7.37
2018-08-20T21:33:55.323Z,3.12
2018-08-20T21:36:23.549Z,3.00
2018-08-20T21:38:51.789Z,3.25
2018-08-20T21:41:23.077Z,5.35
2018-08-20T21:43:51.513Z,2.55
2018-08-20T21:46:19.824Z,3.25
2018-08-20T21:48:48.075Z,3.30
2018-08-20T21:51:18.313Z,2.25
2018-08-20T21:53:46.686Z,5.85
2018-08-20T21:56:14.839Z,2.67
2018-08-20T21:58:43.917Z,2.62
2018-08-20T22:01:13.378Z,5.85
2018-08-20T22:03:42.103Z,3.27
2018-08-20T22:06:10.581Z,2.52
2018-08-20T22:08:38.933Z,2.40
2018-08-20T22:11:07.710Z,4.47
2018-08-20T22:13:35.963Z,3.85
2018-08-20T22:16:22.732Z,4.05
2018-08-20T22:18:55.155Z,3.30
2018-08-20T22:21:23.683Z,2.80
2018-08-20T22:23:53.520Z,3.67
2018-08-20T22:26:21.888Z,3.65
2018-08-20T22:28:51.627Z,4.80
2018-08-20T22:31:20.105Z,4.47
2018-08-20T22:33:55.449Z,8.40
2018-08-20T22:36:23.894Z,5.25
2018-08-20T22:38:55.295Z,5.58
2018-08-20T22:41:24.554Z,5.80
2018-08-20T22:43:52.805Z,3.70
2018-08-20T22:46:21.798Z,5.03
2018-08-20T22:48:50.815Z,3.02
2018-08-20T22:51:19.591Z,4.40
2018-08-20T22:53:50.031Z,6.28
2018-08-20T22:56:20.849Z,3.77
2018-08-20T22:58:49.028Z,3.22
2018-08-20T23:01:17.247Z,5.78
2018-08-20T23:03:45.514Z,4.03
2018-08-20T23:06:13.814Z,4.47
2018-08-20T23:08:41.996Z,4.45
2018-08-20T23:11:10.276Z,3.10
2018-08-20T23:13:38.540Z,3.10
2018-08-20T23:16:06.863Z,5.30
2018-08-20T23:18:35.124Z,2.42
2018-08-20T23:21:03.351Z,4.00
2018-08-20T23:23:36.602Z,3.95
2018-08-20T23:26:09.296Z,4.22
2018-08-20T23:28:38.956Z,3.20
2018-08-20T23:31:07.213Z,5.58
2018-08-20T23:33:39.107Z,4.20
2018-08-20T23:36:07.892Z,7.58
2018-08-20T23:38:36.189Z,6.72
2018-08-20T23:41:04.456Z,4.80
2018-08-20T23:43:32.656Z,16.30
2018-08-20T23:46:00.981Z,5.45
2018-08-20T23:48:29.203Z,3.72
2018-08-20T23:51:04.642Z,4.12
2018-08-20T23:53:32.873Z,4.17
2018-08-20T23:56:01.099Z,5.60
2018-08-20T23:58:29.324Z,6.60
